Time;durP1;ratioP1;P1;durP2;ratioP2;P2;SDS_P1;SDS_P2;PMS_P1;PMS_P2;Temp;Humidity;BMP_temperature;BMP_pressure;BME280_temperature;BME280_humidity;BME280_pressure;Samples;Min_cycle;Max_cycle;Signal;HPM_P1;HPM_P2
2023/06/01 00:00:50;;;;;;;13.02;4.50;;;13.50;94.80;;;;;;5075188;28;20173;-70
2023/06/01 00:03:16;;;;;;;13.77;4.60;;;13.50;94.80;;;;;;5075768;28;20043;-70
2023/06/01 00:05:42;;;;;;;15.35;4.38;;;13.50;94.90;;;;;;5075735;28;20040;-70
2023/06/01 00:08:07;;;;;;;12.43;4.13;;;13.50;94.90;;;;;;5076064;28;20044;-70
2023/06/01 00:10:33;;;;;;;13.55;4.50;;;13.50;94.90;;;;;;5075787;28;20076;-70
2023/06/01 00:12:58;;;;;;;15.13;4.28;;;13.50;94.90;;;;;;5075602;28;20043;-70
2023/06/01 00:15:24;;;;;;;13.75;4.57;;;13.50;94.90;;;;;;5075595;28;20090;-70
2023/06/01 00:17:51;;;;;;;10.98;4.30;;;13.40;94.90;;;;;;5075517;28;20121;-70
2023/06/01 00:20:18;;;;;;;14.00;4.55;;;13.40;94.80;;;;;;5075428;28;20089;-70
2023/06/01 00:22:43;;;;;;;11.30;4.22;;;13.30;94.90;;;;;;5058757;28;20157;-70
2023/06/01 00:25:09;;;;;;;14.88;4.70;;;13.30;95.10;;;;;;5093572;28;20044;-70
2023/06/01 00:27:36;;;;;;;16.20;4.43;;;13.30;95.10;;;;;;5058704;28;20081;-70
2023/06/01 00:30:02;;;;;;;13.40;4.65;;;13.30;95.00;;;;;;5075654;28;20123;-70
2023/06/01 00:32:28;;;;;;;15.32;4.50;;;13.30;95.00;;;;;;5075176;28;20047;-70
2023/06/01 00:34:53;;;;;;;12.55;4.72;;;13.30;95.10;;;;;;5075670;28;20047;-70
2023/06/01 00:37:19;;;;;;;12.20;5.00;;;13.30;95.20;;;;;;5075310;28;20516;-70
2023/06/01 00:39:44;;;;;;;14.57;5.15;;;13.30;95.40;;;;;;5075537;28;20040;-69
2023/06/01 00:42:10;;;;;;;16.08;4.97;;;13.40;95.40;;;;;;5075106;28;20413;-69
2023/06/01 00:44:36;;;;;;;15.90;4.95;;;13.40;95.20;;;;;;5093189;28;20036;-69
2023/06/01 00:47:01;;;;;;;15.57;5.13;;;13.30;95.10;;;;;;5075167;28;20040;-69
2023/06/01 00:49:27;;;;;;;13.70;5.05;;;13.20;95.10;;;;;;5075433;28;20045;-69
2023/06/01 00:51:54;;;;;;;13.35;5.25;;;13.20;95.30;;;;;;5075301;28;20382;-69
2023/06/01 00:54:20;;;;;;;11.98;4.30;;;13.20;95.20;;;;;;5075325;28;20523;-69
2023/06/01 00:56:46;;;;;;;16.67;4.90;;;13.20;95.20;;;;;;5093150;28;20040;-69
2023/06/01 00:59:13;;;;;;;10.25;4.55;;;13.10;95.40;;;;;;5075072;28;20591;-69
2023/06/01 01:01:41;;;;;;;18.10;5.25;;;13.20;95.50;;;;;;5074836;28;20565;-70
2023/06/01 01:04:06;;;;;;;14.25;4.75;;;13.20;95.50;;;;;;5075273;28;20101;-70
2023/06/01 01:07:03;;;;;;;15.15;5.38;;;13.20;95.50;;;;;;5075283;28;20481;-70
2023/06/01 01:09:44;;;;;;;11.30;4.65;;;13.20;95.40;;;;;;5074972;28;20032;-70
2023/06/01 01:12:33;;;;;;;18.15;5.57;;;13.20;95.30;;;;;;5077585;28;20524;-70
2023/06/01 01:15:21;;;;;;;12.40;4.85;;;13.20;95.30;;;;;;5079222;28;20039;-70
2023/06/01 01:17:51;;;;;;;13.65;5.22;;;13.20;95.50;;;;;;5078986;28;20048;-70
2023/06/01 01:20:26;;;;;;;15.60;5.32;;;13.10;95.60;;;;;;5078947;28;20118;-70
2023/06/01 01:23:38;;;;;;;14.20;5.13;;;13.20;95.60;;;;;;5079037;28;20519;-70
2023/06/01 01:26:22;;;;;;;17.10;5.82;;;13.20;95.80;;;;;;5062359;28;20050;-70
2023/06/01 01:29:20;;;;;;;13.60;4.75;;;13.20;95.80;;;;;;5078733;28;20085;-70
2023/06/01 01:31:49;;;;;;;12.50;4.63;;;13.20;95.80;;;;;;5096626;28;20056;-70
2023/06/01 01:34:19;;;;;;;14.13;5.30;;;13.20;95.90;;;;;;5078555;28;20050;-70
2023/06/01 01:36:45;;;;;;;15.80;5.00;;;13.20;95.90;;;;;;5078838;28;20048;-70
2023/06/01 01:39:11;;;;;;;16.00;5.05;;;13.20;95.90;;;;;;5078508;28;20526;-70
2023/06/01 01:41:36;;;;;;;13.48;5.55;;;13.10;95.80;;;;;;5078348;28;20040;-70
2023/06/01 01:44:03;;;;;;;15.27;4.80;;;13.10;95.80;;;;;;5078466;28;20036;-70
2023/06/01 01:46:35;;;;;;;13.88;4.95;;;13.10;95.90;;;;;;5078638;28;20047;-70
2023/06/01 01:49:24;;;;;;;14.48;5.00;;;13.10;95.90;;;;;;5079184;28;20040;-70
2023/06/01 01:52:06;;;;;;;17.90;4.85;;;13.10;95.90;;;;;;5078195;28;20404;-70
2023/06/01 01:54:37;;;;;;;12.20;4.55;;;13.10;96.20;;;;;;5078280;28;20047;-70
2023/06/01 01:57:04;;;;;;;11.52;4.28;;;13.10;96.20;;;;;;5078359;28;20396;-70
2023/06/01 01:59:31;;;;;;;14.10;4.88;;;13.10;96.40;;;;;;5078115;28;20118;-70
2023/06/01 02:01:57;;;;;;;12.90;4.20;;;13.10;96.40;;;;;;5077887;28;20055;-70
2023/06/01 02:04:22;;;;;;;12.40;4.72;;;13.20;96.50;;;;;;5078094;28;20085;-70
2023/06/01 02:06:48;;;;;;;14.30;4.65;;;13.20;96.40;;;;;;5078855;28;20172;-70
2023/06/01 02:09:14;;;;;;;14.02;4.07;;;13.20;96.20;;;;;;5061808;28;20063;-70
2023/06/01 02:11:39;;;;;;;15.23;4.60;;;13.20;96.10;;;;;;5077910;28;20404;-70
2023/06/01 02:14:05;;;;;;;12.52;4.32;;;13.20;96.00;;;;;;5095941;28;20089;-70
2023/06/01 02:16:31;;;;;;;11.52;4.35;;;13.20;95.90;;;;;;5078502;28;20043;-70
2023/06/01 02:18:59;;;;;;;14.50;4.53;;;13.20;95.80;;;;;;5077822;28;20114;-70
2023/06/01 02:21:25;;;;;;;13.57;4.65;;;13.20;95.80;;;;;;5077706;28;20036;-70
2023/06/01 02:23:50;;;;;;;12.38;4.20;;;13.10;95.70;;;;;;5095931;28;20044;-70
2023/06/01 02:26:16;;;;;;;10.18;4.25;;;13.10;95.60;;;;;;5077682;28;20109;-70
2023/06/01 02:28:42;;;;;;;9.63;4.18;;;13.10;95.70;;;;;;5077643;28;20046;-70
2023/06/01 02:31:09;;;;;;;16.52;5.28;;;13.10;95.60;;;;;;5077779;28;20073;-70
2023/06/01 02:33:34;;;;;;;15.20;4.55;;;13.10;95.60;;;;;;5095914;28;20036;-70
2023/06/01 02:36:00;;;;;;;12.77;5.07;;;13.20;95.60;;;;;;5077716;28;20040;-70
2023/06/01 02:38:26;;;;;;;16.15;5.15;;;13.10;95.50;;;;;;5077393;28;20055;-70
2023/06/01 02:40:52;;;;;;;14.35;4.90;;;13.10;95.70;;;;;;5077241;28;20051;-70
2023/06/01 02:43:17;;;;;;;15.10;5.97;;;13.00;95.50;;;;;;5077595;28;20439;-70
2023/06/01 02:45:43;;;;;;;12.57;4.93;;;13.00;95.50;;;;;;5077573;28;20442;-70
2023/06/01 02:48:09;;;;;;;9.18;4.95;;;13.00;95.70;;;;;;5077519;28;20036;-70
2023/06/01 02:50:35;;;;;;;12.10;5.10;;;13.00;95.80;;;;;;5077158;28;20115;-70
2023/06/01 02:53:01;;;;;;;13.88;4.30;;;12.90;95.80;;;;;;5077365;28;20115;-70
2023/06/01 02:55:27;;;;;;;9.35;4.07;;;13.00;95.90;;;;;;5077097;28;20051;-70
2023/06/01 02:57:53;;;;;;;12.00;4.38;;;12.90;95.70;;;;;;5077100;28;20040;-70
2023/06/01 03:00:18;;;;;;;13.00;4.80;;;12.90;95.70;;;;;;5077008;28;20127;-70
2023/06/01 03:02:47;;;;;;;11.95;4.70;;;12.90;95.70;;;;;;5076784;28;20044;-70
2023/06/01 03:05:14;;;;;;;11.18;4.43;;;12.90;95.60;;;;;;5076902;28;20043;-70
2023/06/01 03:07:48;;;;;;;12.20;4.53;;;12.90;95.70;;;;;;5077083;28;20111;-70
2023/06/01 03:10:14;;;;;;;8.98;4.60;;;12.90;95.70;;;;;;5076858;28;20040;-70
2023/06/01 03:12:40;;;;;;;10.25;4.18;;;12.90;95.80;;;;;;5076646;28;20051;-70
2023/06/01 03:15:06;;;;;;;8.70;4.30;;;12.90;95.90;;;;;;5076761;28;20040;-70
2023/06/01 03:17:33;;;;;;;9.75;4.18;;;12.90;96.00;;;;;;5077041;28;20072;-70
2023/06/01 03:19:58;;;;;;;13.73;4.40;;;12.90;96.10;;;;;;5076599;28;20496;-70
2023/06/01 03:22:24;;;;;;;10.63;4.10;;;12.90;96.00;;;;;;5059676;28;20119;-70
2023/06/01 03:24:50;;;;;;;9.70;3.78;;;12.90;96.00;;;;;;5076551;28;20035;-70
2023/06/01 03:27:21;;;;;;;10.32;3.92;;;12.80;96.00;;;;;;5076720;28;20042;-70
2023/06/01 03:29:47;;;;;;;10.35;3.78;;;12.80;96.10;;;;;;5059752;28;20505;-70
2023/06/01 03:32:14;;;;;;;8.40;3.35;;;12.80;96.10;;;;;;5095009;28;20068;-70
2023/06/01 03:34:40;;;;;;;8.27;3.63;;;12.80;96.30;;;;;;5075478;28;20417;-70
2023/06/01 03:37:07;;;;;;;10.25;3.38;;;12.80;96.30;;;;;;5094455;28;20043;-70
2023/06/01 03:39:34;;;;;;;8.43;3.60;;;12.80;96.40;;;;;;5076408;28;20573;-70
2023/06/01 03:42:00;;;;;;;9.35;3.08;;;12.80;96.50;;;;;;5059513;28;20040;-70
2023/06/01 03:44:26;;;;;;;8.13;3.38;;;12.90;96.60;;;;;;5076109;28;20493;-70
2023/06/01 03:46:51;;;;;;;8.73;3.47;;;12.90;96.70;;;;;;5076055;28;20040;-70
2023/06/01 03:49:17;;;;;;;9.82;3.05;;;12.90;96.70;;;;;;5075943;28;20042;-70
2023/06/01 03:51:43;;;;;;;10.40;3.30;;;12.90;96.60;;;;;;5076182;28;20046;-70
2023/06/01 03:54:08;;;;;;;9.77;3.50;;;12.90;96.50;;;;;;5076243;28;20484;-70
2023/06/01 03:56:35;;;;;;;10.00;3.28;;;12.90;96.50;;;;;;5075884;28;20052;-70
2023/06/01 03:59:01;;;;;;;10.48;3.85;;;12.90;96.60;;;;;;5059447;28;20115;-70
2023/06/01 04:01:29;;;;;;;7.20;3.00;;;12.90;96.60;;;;;;5075588;28;20123;-70
2023/06/01 04:03:56;;;;;;;9.85;3.45;;;12.90;96.70;;;;;;5075822;28;20044;-70
2023/06/01 04:06:22;;;;;;;10.05;3.30;;;12.90;96.80;;;;;;5059300;28;20031;-70
2023/06/01 04:08:55;;;;;;;9.63;3.47;;;12.90;96.80;;;;;;5075677;28;20062;-70
2023/06/01 04:11:22;;;;;;;13.10;4.20;;;12.90;96.70;;;;;;5075657;28;20092;-70
2023/06/01 04:13:47;;;;;;;8.13;3.58;;;12.90;96.60;;;;;;5075637;28;20044;-70
2023/06/01 04:16:13;;;;;;;10.48;4.28;;;13.00;96.70;;;;;;5075567;28;20067;-70
2023/06/01 04:18:39;;;;;;;12.77;3.78;;;12.90;96.80;;;;;;5075581;28;20052;-70
2023/06/01 04:21:06;;;;;;;12.50;4.10;;;12.90;96.90;;;;;;5075416;28;20055;-70
2023/06/01 04:23:32;;;;;;;12.65;4.78;;;12.90;97.20;;;;;;5094169;28;20113;-70
2023/06/01 04:25:59;;;;;;;11.50;4.72;;;12.90;97.00;;;;;;5075417;28;20427;-70
2023/06/01 04:28:26;;;;;;;11.05;4.05;;;12.90;97.10;;;;;;5075458;28;20075;-70
2023/06/01 04:30:52;;;;;;;12.40;4.72;;;12.90;97.30;;;;;;5058660;28;20044;-70
2023/06/01 04:33:18;;;;;;;11.27;4.28;;;13.00;97.50;;;;;;5058691;28;20036;-70
2023/06/01 04:35:44;;;;;;;9.18;4.18;;;13.00;97.60;;;;;;5075292;28;20061;-70
2023/06/01 04:38:10;;;;;;;14.60;4.32;;;13.00;97.60;;;;;;5075276;28;20471;-70
2023/06/01 04:40:36;;;;;;;12.52;3.65;;;13.00;97.70;;;;;;5075081;28;20124;-70
2023/06/01 04:43:02;;;;;;;12.35;3.83;;;13.00;97.80;;;;;;5075213;28;20040;-70
2023/06/01 04:45:33;;;;;;;9.45;3.83;;;13.00;97.90;;;;;;5058352;28;20455;-70
2023/06/01 04:47:59;;;;;;;14.07;4.18;;;13.00;98.10;;;;;;5075194;28;20044;-70
2023/06/01 04:50:28;;;;;;;12.68;3.90;;;13.00;98.10;;;;;;5075105;28;20081;-70
2023/06/01 04:52:55;;;;;;;13.57;4.30;;;13.00;98.20;;;;;;5075091;28;20040;-70
2023/06/01 04:55:21;;;;;;;15.07;4.68;;;13.00;98.30;;;;;;5075413;28;20051;-70
2023/06/01 04:57:46;;;;;;;14.88;4.53;;;13.00;98.40;;;;;;5075058;28;20040;-70
2023/06/01 05:00:17;;;;;;;11.45;4.40;;;13.00;98.50;;;;;;5075065;28;20044;-70
2023/06/01 05:02:44;;;;;;;13.75;4.93;;;13.00;98.60;;;;;;5074792;28;20111;-70
2023/06/01 05:05:10;;;;;;;15.45;4.70;;;13.00;98.60;;;;;;5058244;28;20043;-70
2023/06/01 05:07:37;;;;;;;9.50;4.10;;;13.00;98.80;;;;;;5075051;28;20050;-70
2023/06/01 05:10:05;;;;;;;10.43;3.97;;;13.00;98.70;;;;;;5074895;28;20044;-70
2023/06/01 05:12:35;;;;;;;11.13;4.05;;;12.90;98.70;;;;;;5075107;28;20040;-70
2023/06/01 05:15:07;;;;;;;13.02;4.05;;;12.90;98.70;;;;;;5075237;28;20101;-70
2023/06/01 05:17:32;;;;;;;12.15;4.40;;;12.90;98.80;;;;;;5074885;28;20089;-70
2023/06/01 05:19:58;;;;;;;10.13;3.70;;;12.90;99.00;;;;;;5058057;28;20040;-70
2023/06/01 05:22:24;;;;;;;9.30;4.38;;;12.90;99.10;;;;;;5074702;28;20126;-70
2023/06/01 05:24:50;;;;;;;12.75;4.15;;;12.90;99.10;;;;;;5074838;28;20036;-70
2023/06/01 05:27:16;;;;;;;11.82;4.57;;;12.90;99.20;;;;;;5074759;28;20044;-70
2023/06/01 05:29:42;;;;;;;11.38;4.28;;;13.00;99.20;;;;;;5058057;28;20044;-70
2023/06/01 05:32:08;;;;;;;10.60;4.00;;;13.00;99.20;;;;;;5074692;28;20051;-70
2023/06/01 05:34:34;;;;;;;10.07;3.15;;;13.00;99.30;;;;;;5058010;28;20040;-70
2023/06/01 05:37:01;;;;;;;7.53;3.53;;;12.90;99.30;;;;;;5074674;28;20100;-70
2023/06/01 05:39:28;;;;;;;10.32;3.38;;;12.90;99.30;;;;;;5074696;28;20052;-70
2023/06/01 05:41:54;;;;;;;9.85;3.15;;;12.90;99.40;;;;;;5074551;28;20044;-70
2023/06/01 05:44:20;;;;;;;12.07;3.17;;;12.90;99.60;;;;;;5074679;28;20044;-70
2023/06/01 05:46:46;;;;;;;7.75;3.28;;;12.90;99.70;;;;;;5074969;28;20032;-70
2023/06/01 05:49:11;;;;;;;12.90;3.88;;;12.90;99.80;;;;;;5074652;28;20040;-70
2023/06/01 05:51:40;;;;;;;9.57;3.33;;;13.00;99.90;;;;;;5093015;28;20044;-70
2023/06/01 05:54:06;;;;;;;10.68;3.78;;;12.90;99.90;;;;;;5074782;28;20184;-70
2023/06/01 05:56:32;;;;;;;10.90;3.47;;;12.90;99.90;;;;;;5074537;28;20547;-70
2023/06/01 05:58:59;;;;;;;8.27;3.30;;;12.90;99.90;;;;;;5077902;28;20039;-70
2023/06/01 06:01:24;;;;;;;8.73;3.20;;;12.90;99.90;;;;;;5077875;28;20048;-70
2023/06/01 06:03:50;;;;;;;8.35;3.40;;;12.90;99.90;;;;;;5078076;28;20039;-70
2023/06/01 06:06:17;;;;;;;8.40;2.97;;;13.00;99.90;;;;;;5078102;28;20047;-70
2023/06/01 06:08:42;;;;;;;10.55;3.47;;;13.00;99.90;;;;;;5096158;28;20561;-70
2023/06/01 06:11:08;;;;;;;10.50;3.78;;;13.00;99.90;;;;;;5078156;28;20040;-70
2023/06/01 06:13:34;;;;;;;9.43;3.42;;;13.10;99.90;;;;;;5077876;28;20048;-70
2023/06/01 06:15:59;;;;;;;9.65;3.28;;;13.10;99.90;;;;;;5077903;28;20036;-70
2023/06/01 06:18:25;;;;;;;11.80;3.58;;;13.00;99.90;;;;;;5077814;28;20044;-70
2023/06/01 06:20:51;;;;;;;7.20;3.17;;;13.00;99.90;;;;;;5077608;28;20087;-70
2023/06/01 06:23:16;;;;;;;10.88;3.10;;;13.10;99.90;;;;;;5078014;28;20119;-70
2023/06/01 06:25:42;;;;;;;12.50;3.40;;;13.10;99.90;;;;;;5078071;28;20079;-70
2023/06/01 06:28:08;;;;;;;9.23;3.33;;;13.10;99.90;;;;;;5077961;28;20031;-70
2023/06/01 06:30:34;;;;;;;8.95;3.00;;;13.10;99.90;;;;;;5077529;28;20569;-70
2023/06/01 06:33:00;;;;;;;7.65;2.63;;;13.20;99.90;;;;;;5077571;28;20082;-70
2023/06/01 06:35:25;;;;;;;10.75;3.45;;;13.20;99.90;;;;;;5077760;28;20067;-70
2023/06/01 06:37:51;;;;;;;8.98;3.10;;;13.20;99.90;;;;;;5077542;28;20032;-70
2023/06/01 06:40:18;;;;;;;8.32;3.25;;;13.20;99.90;;;;;;5077546;28;20040;-70
2023/06/01 06:42:45;;;;;;;9.10;3.17;;;13.30;99.90;;;;;;5077229;28;20036;-70
2023/06/01 06:45:10;;;;;;;9.30;2.85;;;13.30;99.90;;;;;;5077303;28;20032;-70
2023/06/01 06:47:36;;;;;;;8.23;3.35;;;13.30;99.90;;;;;;5077301;28;20124;-70
2023/06/01 06:50:02;;;;;;;12.13;3.00;;;13.30;99.90;;;;;;5077244;28;20047;-70
2023/06/01 06:52:28;;;;;;;6.85;3.10;;;13.30;99.90;;;;;;5077189;28;20058;-70
2023/06/01 06:54:54;;;;;;;9.77;3.13;;;13.30;99.90;;;;;;5077146;28;20118;-70
2023/06/01 06:57:20;;;;;;;10.00;2.92;;;13.30;99.90;;;;;;5077158;28;20066;-70
2023/06/01 06:59:45;;;;;;;7.68;2.90;;;13.30;99.90;;;;;;5095182;28;20075;-70
2023/06/01 07:02:11;;;;;;;7.90;2.60;;;13.40;99.90;;;;;;5076929;28;20071;-70
2023/06/01 07:04:36;;;;;;;5.90;2.42;;;13.40;99.90;;;;;;5076989;28;20142;-70
2023/06/01 07:07:04;;;;;;;6.05;2.35;;;13.40;99.90;;;;;;5076864;28;20040;-70
2023/06/01 07:09:29;;;;;;;6.53;2.10;;;13.40;99.90;;;;;;5059011;28;20428;-70
2023/06/01 07:11:55;;;;;;;7.88;2.58;;;13.40;99.70;;;;;;5076746;28;20047;-70
2023/06/01 07:14:20;;;;;;;6.40;2.55;;;13.50;99.60;;;;;;5060335;28;20048;-70
2023/06/01 07:16:46;;;;;;;6.22;2.42;;;13.50;99.60;;;;;;5076993;28;20085;-70
2023/06/01 07:19:12;;;;;;;8.90;2.70;;;13.50;99.40;;;;;;5076964;28;20081;-70
2023/06/01 07:21:38;;;;;;;10.40;2.85;;;13.50;99.20;;;;;;5076497;28;20412;-70
2023/06/01 07:24:05;;;;;;;7.22;2.42;;;13.50;99.30;;;;;;5076530;28;20048;-70
2023/06/01 07:26:30;;;;;;;10.60;2.88;;;13.60;98.80;;;;;;5076602;28;20055;-70
2023/06/01 07:28:56;;;;;;;9.63;3.08;;;13.60;98.60;;;;;;5076376;28;20044;-70
2023/06/01 07:31:23;;;;;;;8.40;2.75;;;13.60;98.50;;;;;;5076379;28;20044;-70
2023/06/01 07:33:49;;;;;;;8.23;2.70;;;13.70;98.30;;;;;;5059741;28;20485;-70
2023/06/01 07:36:17;;;;;;;8.02;3.05;;;13.70;98.10;;;;;;5076330;28;20047;-70
2023/06/01 07:38:44;;;;;;;6.82;2.97;;;13.70;98.00;;;;;;5076572;28;20081;-70
2023/06/01 07:41:10;;;;;;;7.57;2.63;;;13.80;98.20;;;;;;5076096;28;20032;-70
2023/06/01 07:43:37;;;;;;;9.55;2.83;;;13.90;98.00;;;;;;5076188;28;20043;-70
2023/06/01 07:46:03;;;;;;;7.70;2.33;;;13.90;97.80;;;;;;5076098;28;20047;-70
2023/06/01 07:48:28;;;;;;;8.82;2.58;;;14.00;97.60;;;;;;5094791;28;20043;-70
2023/06/01 07:50:54;;;;;;;8.50;2.33;;;14.00;97.60;;;;;;5076198;28;20048;-70
2023/06/01 07:53:20;;;;;;;6.63;2.33;;;14.10;97.70;;;;;;5076294;28;20385;-70
2023/06/01 07:55:48;;;;;;;5.88;1.80;;;14.10;97.60;;;;;;5076519;28;20040;-70
2023/06/01 07:58:14;;;;;;;5.82;1.60;;;14.10;97.60;;;;;;5075897;28;20123;-70
2023/06/01 08:00:40;;;;;;;8.07;1.52;;;14.20;97.70;;;;;;5059065;28;20036;-70
2023/06/01 08:03:07;;;;;;;3.53;1.58;;;14.10;97.50;;;;;;5075902;28;20105;-70
2023/06/01 08:05:36;;;;;;;4.43;1.77;;;14.20;97.40;;;;;;5076027;28;20075;-70
2023/06/01 08:08:02;;;;;;;4.43;1.55;;;14.20;97.40;;;;;;5075754;28;20040;-70
2023/06/01 08:10:27;;;;;;;9.02;2.50;;;14.20;97.40;;;;;;5075674;28;20051;-70
2023/06/01 08:12:55;;;;;;;6.28;2.00;;;14.30;97.50;;;;;;5075693;28;20087;-70
2023/06/01 08:15:23;;;;;;;9.85;3.00;;;14.30;97.60;;;;;;5075633;28;20067;-70
2023/06/01 08:17:50;;;;;;;6.07;2.10;;;14.30;97.40;;;;;;5075782;28;20051;-70
2023/06/01 08:20:21;;;;;;;5.85;2.28;;;14.30;97.20;;;;;;5075208;28;20052;-70
2023/06/01 08:22:47;;;;;;;7.10;1.90;;;14.40;96.90;;;;;;5075401;28;20554;-70
2023/06/01 08:25:14;;;;;;;3.00;1.50;;;14.50;96.70;;;;;;5075719;28;20044;-70
2023/06/01 08:27:40;;;;;;;9.43;1.80;;;14.50;96.30;;;;;;5075733;28;20118;-70
2023/06/01 08:30:06;;;;;;;3.58;1.50;;;14.50;96.20;;;;;;5075375;28;20085;-70
2023/06/01 08:32:32;;;;;;;5.38;2.03;;;14.50;96.30;;;;;;5075278;28;20091;-70
2023/06/01 08:34:58;;;;;;;4.90;1.65;;;14.50;96.30;;;;;;5075358;28;20072;-70
2023/06/01 08:37:23;;;;;;;4.00;1.50;;;14.60;96.40;;;;;;5075274;28;20064;-70
2023/06/01 08:39:49;;;;;;;3.75;1.70;;;14.60;96.50;;;;;;5075573;28;20043;-70
2023/06/01 08:42:57;;;;;;;5.78;1.65;;;14.60;96.50;;;;;;5058364;28;20040;-70
2023/06/01 08:45:24;;;;;;;4.28;1.35;;;14.60;96.10;;;;;;5075523;28;20132;-70
2023/06/01 08:47:53;;;;;;;6.63;1.73;;;14.60;96.40;;;;;;5058834;28;20048;-70
2023/06/01 08:50:20;;;;;;;3.45;1.30;;;14.60;96.40;;;;;;5075248;28;20578;-70
2023/06/01 08:52:48;;;;;;;4.28;1.25;;;14.70;96.40;;;;;;5075440;28;20047;-70
2023/06/01 08:55:15;;;;;;;4.20;1.38;;;14.70;96.80;;;;;;5093098;28;20447;-70
2023/06/01 08:57:41;;;;;;;3.00;1.13;;;14.70;97.00;;;;;;5075067;28;20485;-70
2023/06/01 09:00:08;;;;;;;3.10;1.48;;;14.70;97.20;;;;;;5075335;28;20066;-70
2023/06/01 09:02:34;;;;;;;5.93;1.38;;;14.70;97.20;;;;;;5074825;28;20048;-70
2023/06/01 09:04:59;;;;;;;12.35;1.80;;;14.80;97.50;;;;;;5075047;28;20036;-70
2023/06/01 09:07:26;;;;;;;4.30;1.42;;;14.90;97.50;;;;;;5075079;28;20039;-70
2023/06/01 09:09:51;;;;;;;4.75;1.05;;;15.10;97.20;;;;;;5074982;28;20039;-70
2023/06/01 09:12:32;;;;;;;2.53;0.63;;;15.10;96.80;;;;;;5074850;28;20040;-70
2023/06/01 09:15:12;;;;;;;2.47;1.00;;;15.20;96.60;;;;;;5075231;28;20055;-70
2023/06/01 09:17:47;;;;;;;3.45;1.10;;;15.20;96.80;;;;;;5074979;28;20079;-70
2023/06/01 09:20:37;;;;;;;3.13;1.00;;;15.20;97.00;;;;;;5074867;28;20083;-70
2023/06/01 09:23:02;;;;;;;3.55;0.80;;;15.10;97.10;;;;;;5074918;28;20056;-70
2023/06/01 09:25:31;;;;;;;2.97;1.08;;;15.10;97.30;;;;;;5074774;28;20043;-70
2023/06/01 09:27:58;;;;;;;3.38;0.80;;;15.00;97.90;;;;;;5074829;28;20047;-70
2023/06/01 09:30:35;;;;;;;2.92;0.95;;;14.90;98.80;;;;;;5075112;28;20093;-70
2023/06/01 09:33:14;;;;;;;5.85;1.27;;;14.90;99.00;;;;;;5095282;28;20067;-70
2023/06/01 09:35:45;;;;;;;4.30;1.00;;;14.80;99.30;;;;;;5078721;28;20447;-70
2023/06/01 09:38:11;;;;;;;4.35;1.23;;;14.80;99.90;;;;;;5078653;28;20482;-70
2023/06/01 09:40:38;;;;;;;3.72;1.35;;;14.70;99.90;;;;;;5078410;28;20085;-70
2023/06/01 09:43:25;;;;;;;4.95;1.67;;;14.80;99.90;;;;;;5078563;28;20075;-70
2023/06/01 09:46:13;;;;;;;4.85;2.08;;;14.80;99.90;;;;;;5060892;28;20135;-70
2023/06/01 09:48:39;;;;;;;4.82;2.00;;;14.80;99.90;;;;;;5078577;28;20093;-70
2023/06/01 09:51:21;;;;;;;7.03;2.20;;;14.70;99.90;;;;;;5061651;28;20119;-70
2023/06/01 09:53:46;;;;;;;5.60;2.20;;;14.60;99.90;;;;;;5078588;28;20083;-70
2023/06/01 09:56:12;;;;;;;7.45;3.17;;;14.50;99.90;;;;;;5078295;28;20719;-70
2023/06/01 09:58:40;;;;;;;9.05;2.65;;;14.50;99.90;;;;;;5096410;28;20123;-70
2023/06/01 10:01:09;;;;;;;11.55;3.60;;;14.50;99.90;;;;;;5096066;28;20048;-70
2023/06/01 10:03:41;;;;;;;9.98;2.88;;;14.50;99.90;;;;;;5078382;28;20118;-70
2023/06/01 10:06:07;;;;;;;8.30;2.63;;;14.50;99.90;;;;;;5078359;28;20043;-70
2023/06/01 10:08:34;;;;;;;9.13;3.33;;;14.50;99.90;;;;;;5077985;28;20054;-70
2023/06/01 10:10:59;;;;;;;10.10;2.58;;;14.50;99.90;;;;;;5077939;28;20501;-70
2023/06/01 10:13:25;;;;;;;10.00;2.90;;;14.60;99.90;;;;;;5078288;28;20115;-70
2023/06/01 10:15:54;;;;;;;6.18;2.10;;;14.70;99.40;;;;;;5077948;28;20512;-70
2023/06/01 10:18:21;;;;;;;7.25;3.03;;;14.70;99.00;;;;;;5078126;28;20058;-70
2023/06/01 10:20:46;;;;;;;7.88;2.70;;;14.80;98.50;;;;;;5077594;28;20492;-70
2023/06/01 10:23:12;;;;;;;9.85;2.90;;;14.80;97.90;;;;;;5077731;28;20036;-70
2023/06/01 10:25:45;;;;;;;8.82;2.60;;;14.80;97.40;;;;;;5078039;28;20039;-70
2023/06/01 10:28:13;;;;;;;11.65;3.05;;;14.90;97.00;;;;;;5077711;28;20036;-70
2023/06/01 10:30:39;;;;;;;8.70;2.70;;;14.90;96.90;;;;;;5060817;28;20438;-70
2023/06/01 10:33:06;;;;;;;10.23;2.50;;;14.90;96.80;;;;;;5060990;28;20058;-70
2023/06/01 10:35:32;;;;;;;7.50;2.83;;;15.00;96.40;;;;;;5077516;28;20441;-70
2023/06/01 10:38:07;;;;;;;11.05;3.13;;;15.00;95.90;;;;;;5077454;28;20036;-70
2023/06/01 10:40:37;;;;;;;12.25;2.78;;;15.00;95.50;;;;;;5077392;28;20485;-70
2023/06/01 10:43:03;;;;;;;9.60;2.58;;;15.00;95.40;;;;;;5076928;28;20048;-70
2023/06/01 10:45:42;;;;;;;11.32;2.92;;;15.00;95.40;;;;;;5077361;28;20038;-70
2023/06/01 10:48:12;;;;;;;11.13;2.97;;;15.00;94.90;;;;;;5077292;28;20040;-70
2023/06/01 10:50:42;;;;;;;12.15;3.10;;;15.10;95.20;;;;;;5077162;28;20047;-70
2023/06/01 10:53:28;;;;;;;12.45;3.15;;;15.10;95.30;;;;;;5077156;28;20052;-70
2023/06/01 10:56:20;;;;;;;10.55;3.03;;;15.10;94.70;;;;;;5077177;28;20047;-70
2023/06/01 10:59:07;;;;;;;14.43;3.00;;;15.10;94.90;;;;;;5060452;28;20047;-70
2023/06/01 11:01:34;;;;;;;15.35;3.85;;;15.10;95.00;;;;;;5076626;28;20083;-70
2023/06/01 11:03:59;;;;;;;8.60;2.25;;;15.10;95.10;;;;;;5076972;28;20044;-70
2023/06/01 11:06:35;;;;;;;11.00;3.00;;;15.10;95.10;;;;;;5077024;28;20040;-70
2023/06/01 11:09:06;;;;;;;11.70;3.05;;;15.20;94.90;;;;;;5076905;28;20032;-70
2023/06/01 11:11:55;;;;;;;9.63;2.50;;;15.20;94.70;;;;;;5076832;28;20093;-70
2023/06/01 11:14:33;;;;;;;11.05;2.20;;;15.20;94.40;;;;;;5077019;28;20389;-70
2023/06/01 11:17:30;;;;;;;9.40;2.30;;;15.30;94.30;;;;;;5077007;28;20039;-70
2023/06/01 11:19:58;;;;;;;7.03;2.20;;;15.40;93.20;;;;;;5076787;28;20047;-70
2023/06/01 11:22:24;;;;;;;9.60;2.22;;;15.50;92.90;;;;;;5076622;28;20148;-70
2023/06/01 11:24:54;;;;;;;8.45;1.98;;;15.60;92.60;;;;;;5076646;28;20040;-70
2023/06/01 11:27:20;;;;;;;9.23;2.40;;;15.80;92.30;;;;;;5076550;28;20075;-70
2023/06/01 11:29:48;;;;;;;9.13;2.80;;;15.80;92.00;;;;;;5076481;28;20068;-70
2023/06/01 11:32:15;;;;;;;13.68;2.72;;;15.90;91.60;;;;;;5076272;28;20114;-70
2023/06/01 11:34:45;;;;;;;8.15;2.15;;;16.00;91.60;;;;;;5076625;28;20062;-70
2023/06/01 11:37:19;;;;;;;8.15;2.17;;;16.00;91.10;;;;;;5076716;28;20086;-70
2023/06/01 11:39:46;;;;;;;9.52;2.25;;;16.10;90.80;;;;;;5094666;28;20111;-70
2023/06/01 11:42:17;;;;;;;9.02;2.00;;;16.00;90.70;;;;;;5076099;28;20443;-70
2023/06/01 11:44:56;;;;;;;7.35;2.38;;;16.10;90.60;;;;;;5076261;28;20093;-70
2023/06/01 11:47:21;;;;;;;14.07;2.35;;;16.20;90.80;;;;;;5076209;28;20040;-70
2023/06/01 11:49:49;;;;;;;8.50;2.28;;;16.30;90.50;;;;;;5076371;28;20044;-70
2023/06/01 11:52:19;;;;;;;7.78;2.20;;;16.30;90.10;;;;;;5076002;28;20119;-70
2023/06/01 11:54:45;;;;;;;7.15;2.28;;;16.40;90.10;;;;;;5075617;28;20051;-70
2023/06/01 11:57:12;;;;;;;10.00;2.47;;;16.50;90.10;;;;;;5076258;28;20074;-70
2023/06/01 11:59:46;;;;;;;8.40;2.13;;;16.50;89.90;;;;;;5075948;28;20040;-70
2023/06/01 12:02:20;;;;;;;16.35;2.80;;;16.60;89.30;;;;;;5075787;28;20113;-70
2023/06/01 12:04:55;;;;;;;13.18;2.70;;;16.50;89.10;;;;;;5075755;28;20561;-70
2023/06/01 12:07:21;;;;;;;32.97;3.40;;;16.50;89.00;;;;;;5075858;28;20043;-70
2023/06/01 12:09:47;;;;;;;9.57;2.75;;;16.40;89.60;;;;;;5094147;28;20032;-70
2023/06/01 12:12:13;;;;;;;8.40;2.40;;;16.50;89.30;;;;;;5094031;28;20036;-70
2023/06/01 12:14:40;;;;;;;12.27;2.75;;;16.40;88.90;;;;;;5075661;28;20048;-70
2023/06/01 12:17:06;;;;;;;9.40;2.50;;;16.40;88.60;;;;;;5075578;28;20040;-70
2023/06/01 12:19:32;;;;;;;8.57;2.10;;;16.40;88.50;;;;;;5075845;28;20043;-70
2023/06/01 12:21:59;;;;;;;8.65;2.28;;;16.40;87.90;;;;;;5075413;28;20408;-70
2023/06/01 12:24:33;;;;;;;10.23;2.67;;;16.40;87.30;;;;;;5075477;28;20544;-70
2023/06/01 12:27:00;;;;;;;9.60;2.28;;;16.40;86.60;;;;;;5075511;28;20123;-70
2023/06/01 12:29:46;;;;;;;8.98;2.40;;;16.40;86.80;;;;;;5093567;28;20043;-70
2023/06/01 12:32:15;;;;;;;11.48;2.75;;;16.50;85.70;;;;;;5075376;28;20065;-70
2023/06/01 12:34:47;;;;;;;7.28;2.20;;;16.60;86.10;;;;;;5075592;28;20048;-70
2023/06/01 12:37:17;;;;;;;9.82;2.20;;;16.60;85.90;;;;;;5075396;28;20051;-70
2023/06/01 12:39:43;;;;;;;9.00;2.22;;;16.70;85.60;;;;;;5075357;28;20036;-70
2023/06/01 12:42:11;;;;;;;7.63;2.13;;;16.80;85.00;;;;;;5075290;28;20055;-70
2023/06/01 12:44:37;;;;;;;7.38;1.98;;;16.90;85.00;;;;;;5075204;28;20039;-70
2023/06/01 12:47:03;;;;;;;6.22;2.22;;;17.00;84.30;;;;;;5075261;28;20043;-70